sensor_id;sensor_type;location;lat;lon;timestamp;pressure;altitude;pressure_sealevel;temperature;humidity
49393;BME280;35268;42.642;23.308;2023-02-12T00:01:37;94824.88;;;0.39;36.25
49393;BME280;35268;42.642;23.308;2023-02-12T00:04:03;94840.03;;;0.37;36.63
49393;BME280;35268;42.642;23.308;2023-02-12T00:06:29;94811.19;;;0.37;35.80
49393;BME280;35268;42.642;23.308;2023-02-12T00:08:55;94825.66;;;0.39;35.97
49393;BME280;35268;42.642;23.308;2023-02-12T00:11:24;94839.47;;;0.35;36.44
49393;BME280;35268;42.642;23.308;2023-02-12T00:13:50;94831.13;;;0.38;36.84
49393;BME280;35268;42.642;23.308;2023-02-12T00:16:20;94829.09;;;0.40;36.71
49393;BME280;35268;42.642;23.308;2023-02-12T00:18:46;94837.75;;;0.40;36.29
49393;BME280;35268;42.642;23.308;2023-02-12T00:21:12;94828.88;;;0.42;36.07
49393;BME280;35268;42.642;23.308;2023-02-12T00:23:38;94824.97;;;0.44;35.97
49393;BME280;35268;42.642;23.308;2023-02-12T00:26:10;94820.31;;;0.46;35.85
49393;BME280;35268;42.642;23.308;2023-02-12T00:28:36;94838.44;;;0.48;36.00
49393;BME280;35268;42.642;23.308;2023-02-12T00:31:06;94826.13;;;0.48;36.27
49393;BME280;35268;42.642;23.308;2023-02-12T00:33:32;94824.75;;;0.46;36.81
49393;BME280;35268;42.642;23.308;2023-02-12T00:35:57;94835.38;;;0.39;36.42
49393;BME280;35268;42.642;23.308;2023-02-12T00:38:23;94811.66;;;0.46;36.35
49393;BME280;35268;42.642;23.308;2023-02-12T00:40:48;94806.63;;;0.44;36.99
49393;BME280;35268;42.642;23.308;2023-02-12T00:43:14;94805.13;;;0.36;36.73
49393;BME280;35268;42.642;23.308;2023-02-12T00:45:39;94790.88;;;0.44;36.38
49393;BME280;35268;42.642;23.308;2023-02-12T00:48:04;94793.06;;;0.47;36.49
49393;BME280;35268;42.642;23.308;2023-02-12T00:50:30;94787.81;;;0.47;35.85
49393;BME280;35268;42.642;23.308;2023-02-12T00:52:55;94781.31;;;0.50;36.47
49393;BME280;35268;42.642;23.308;2023-02-12T00:55:21;94787.25;;;0.45;36.68
49393;BME280;35268;42.642;23.308;2023-02-12T00:57:46;94773.88;;;0.47;36.73
49393;BME280;35268;42.642;23.308;2023-02-12T01:00:13;94773.09;;;0.46;36.64
49393;BME280;35268;42.642;23.308;2023-02-12T01:02:38;94778.69;;;0.50;36.68
49393;BME280;35268;42.642;23.308;2023-02-12T01:05:04;94777.91;;;0.49;36.44
49393;BME280;35268;42.642;23.308;2023-02-12T01:07:29;94767.41;;;0.49;36.37
49393;BME280;35268;42.642;23.308;2023-02-12T01:09:55;94766.59;;;0.49;36.86
49393;BME280;35268;42.642;23.308;2023-02-12T01:12:20;94754.88;;;0.51;36.23
49393;BME280;35268;42.642;23.308;2023-02-12T01:14:46;94753.59;;;0.54;36.37
49393;BME280;35268;42.642;23.308;2023-02-12T01:17:11;94756.91;;;0.61;36.46
49393;BME280;35268;42.642;23.308;2023-02-12T01:19:37;94778.69;;;0.50;36.54
49393;BME280;35268;42.642;23.308;2023-02-12T01:22:02;94781.31;;;0.50;37.46
49393;BME280;35268;42.642;23.308;2023-02-12T01:24:28;94776.63;;;0.40;37.38
49393;BME280;35268;42.642;23.308;2023-02-12T01:26:53;94792.50;;;0.45;37.37
49393;BME280;35268;42.642;23.308;2023-02-12T01:29:19;94806.63;;;0.44;37.74
49393;BME280;35268;42.642;23.308;2023-02-12T01:31:44;94810.63;;;0.35;37.79
49393;BME280;35268;42.642;23.308;2023-02-12T01:34:10;94802.75;;;0.35;38.00
49393;BME280;35268;42.642;23.308;2023-02-12T01:36:36;94783.81;;;0.33;38.00
49393;BME280;35268;42.642;23.308;2023-02-12T01:39:03;94786.75;;;0.36;37.98
49393;BME280;35268;42.642;23.308;2023-02-12T01:41:31;94779.72;;;0.37;38.21
49393;BME280;35268;42.642;23.308;2023-02-12T01:44:08;94776.06;;;0.38;38.54
49393;BME280;35268;42.642;23.308;2023-02-12T01:46:34;94773.91;;;0.35;38.25
49393;BME280;35268;42.642;23.308;2023-02-12T01:48:59;94774.66;;;0.24;38.87
49393;BME280;35268;42.642;23.308;2023-02-12T01:51:26;94761.78;;;0.22;39.21
49393;BME280;35268;42.642;23.308;2023-02-12T01:53:54;94786.78;;;0.25;38.99
49393;BME280;35268;42.642;23.308;2023-02-12T01:56:21;94768.28;;;0.19;39.65
49393;BME280;35268;42.642;23.308;2023-02-12T01:58:50;94753.34;;;0.20;39.55
49393;BME280;35268;42.642;23.308;2023-02-12T02:01:22;94756.88;;;0.26;39.97
49393;BME280;35268;42.642;23.308;2023-02-12T02:03:49;94783.78;;;0.21;39.96
49393;BME280;35268;42.642;23.308;2023-02-12T02:06:20;94759.25;;;0.15;40.12
49393;BME280;35268;42.642;23.308;2023-02-12T02:08:48;94764.06;;;0.18;40.29
49393;BME280;35268;42.642;23.308;2023-02-12T02:11:14;94762.94;;;0.14;40.87
49393;BME280;35268;42.642;23.308;2023-02-12T02:13:58;94767.50;;;0.19;40.65
49393;BME280;35268;42.642;23.308;2023-02-12T02:16:49;94765.44;;;0.21;41.12
49393;BME280;35268;42.642;23.308;2023-02-12T02:19:41;94767.84;;;0.23;41.16
49393;BME280;35268;42.642;23.308;2023-02-12T02:27:42;94763.50;;;0.28;41.52
49393;BME280;35268;42.642;23.308;2023-02-12T02:33:26;94753.50;;;0.37;41.80
49393;BME280;35268;42.642;23.308;2023-02-12T02:41:37;94741.06;;;0.21;43.50
49393;BME280;35268;42.642;23.308;2023-02-12T02:44:12;94757.69;;;0.14;43.67
49393;BME280;35268;42.642;23.308;2023-02-12T02:46:49;94776.03;;;0.14;43.95
49393;BME280;35268;42.642;23.308;2023-02-12T02:49:20;94757.13;;;0.12;44.31
49393;BME280;35268;42.642;23.308;2023-02-12T02:51:51;94765.19;;;0.11;44.38
49393;BME280;35268;42.642;23.308;2023-02-12T02:54:22;94762.47;;;0.17;44.39
49393;BME280;35268;42.642;23.308;2023-02-12T02:56:55;94766.56;;;0.13;44.39
49393;BME280;35268;42.642;23.308;2023-02-12T02:59:27;94751.19;;;0.17;44.46
49393;BME280;35268;42.642;23.308;2023-02-12T03:02:00;94766.91;;;0.17;44.99
49393;BME280;35268;42.642;23.308;2023-02-12T03:04:39;94760.53;;;0.13;44.59
49393;BME280;35268;42.642;23.308;2023-02-12T03:07:10;94763.50;;;0.16;44.73
49393;BME280;35268;42.642;23.308;2023-02-12T03:09:39;94763.81;;;0.20;44.51
49393;BME280;35268;42.642;23.308;2023-02-12T03:12:14;94764.88;;;0.19;44.99
49393;BME280;35268;42.642;23.308;2023-02-12T03:14:49;94767.94;;;0.28;44.83
49393;BME280;35268;42.642;23.308;2023-02-12T03:17:20;94757.25;;;0.29;44.84
49393;BME280;35268;42.642;23.308;2023-02-12T03:19:59;94758.59;;;0.32;45.26
49393;BME280;35268;42.642;23.308;2023-02-12T03:22:35;94745.50;;;0.32;44.76
49393;BME280;35268;42.642;23.308;2023-02-12T03:39:37;94747.56;;;0.53;45.21
49393;BME280;35268;42.642;23.308;2023-02-12T03:42:13;94744.47;;;0.56;45.31
49393;BME280;35268;42.642;23.308;2023-02-12T03:44:49;94755.75;;;0.57;44.64
49393;BME280;35268;42.642;23.308;2023-02-12T03:47:50;94763.97;;;0.60;44.06
49393;BME280;35268;42.642;23.308;2023-02-12T03:52:57;94758.72;;;0.60;44.43
49393;BME280;35268;42.642;23.308;2023-02-12T03:55:23;94766.16;;;0.64;44.21
49393;BME280;35268;42.642;23.308;2023-02-12T03:57:56;94762.72;;;0.63;44.47
49393;BME280;35268;42.642;23.308;2023-02-12T04:00:25;94766.03;;;0.58;44.24
49393;BME280;35268;42.642;23.308;2023-02-12T04:02:52;94770.59;;;0.63;45.24
49393;BME280;35268;42.642;23.308;2023-02-12T04:05:26;94757.03;;;0.54;45.33
49393;BME280;35268;42.642;23.308;2023-02-12T04:07:53;94750.41;;;0.52;44.94
49393;BME280;35268;42.642;23.308;2023-02-12T04:10:26;94744.25;;;0.58;45.36
49393;BME280;35268;42.642;23.308;2023-02-12T04:13:05;94748.72;;;0.57;45.22
49393;BME280;35268;42.642;23.308;2023-02-12T04:16:08;94753.59;;;0.54;45.30
49393;BME280;35268;42.642;23.308;2023-02-12T04:18:41;94760.34;;;0.50;45.84
49393;BME280;35268;42.642;23.308;2023-02-12T04:24:18;94760.31;;;0.38;46.63
49393;BME280;35268;42.642;23.308;2023-02-12T04:29:33;94761.69;;;0.29;47.16
49393;BME280;35268;42.642;23.308;2023-02-12T04:32:17;94757.69;;;0.26;47.16
49393;BME280;35268;42.642;23.308;2023-02-12T04:34:56;94771.03;;;0.25;47.57
49393;BME280;35268;42.642;23.308;2023-02-12T04:37:30;94771.94;;;0.18;47.73
49393;BME280;35268;42.642;23.308;2023-02-12T04:40:02;94777.19;;;0.18;47.62
49393;BME280;35268;42.642;23.308;2023-02-12T04:42:28;94767.59;;;0.12;48.46
49393;BME280;35268;42.642;23.308;2023-02-12T04:44:54;94773.41;;;0.14;48.30
49393;BME280;35268;42.642;23.308;2023-02-12T04:47:19;94776.03;;;0.14;47.77
49393;BME280;35268;42.642;23.308;2023-02-12T04:49:44;94778.09;;;0.12;48.40
49393;BME280;35268;42.642;23.308;2023-02-12T04:52:10;94784.34;;;0.11;48.28
49393;BME280;35268;42.642;23.308;2023-02-12T04:54:35;94787.75;;;0.00;47.30
49393;BME280;35268;42.642;23.308;2023-02-12T04:57:01;94801.28;;;-0.03;47.02
49393;BME280;35268;42.642;23.308;2023-02-12T04:59:26;94794.59;;;0.13;46.19
49393;BME280;35268;42.642;23.308;2023-02-12T05:01:52;94792.09;;;0.18;46.69
49393;BME280;35268;42.642;23.308;2023-02-12T05:04:18;94786.06;;;0.17;45.33
49393;BME280;35268;42.642;23.308;2023-02-12T05:06:44;94782.91;;;0.27;45.19
49393;BME280;35268;42.642;23.308;2023-02-12T05:09:15;94794.41;;;0.38;44.63
49393;BME280;35268;42.642;23.308;2023-02-12T05:11:41;94800.22;;;0.40;44.67
49393;BME280;35268;42.642;23.308;2023-02-12T05:14:07;94795.69;;;0.47;44.90
49393;BME280;35268;42.642;23.308;2023-02-12T05:16:32;94793.50;;;0.44;44.16
49393;BME280;35268;42.642;23.308;2023-02-12T05:18:58;94796.59;;;0.41;44.38
49393;BME280;35268;42.642;23.308;2023-02-12T05:21:23;94807.41;;;0.45;45.03
49393;BME280;35268;42.642;23.308;2023-02-12T05:23:48;94819.63;;;0.39;45.35
49393;BME280;35268;42.642;23.308;2023-02-12T05:26:17;94818.44;;;0.23;48.85
49393;BME280;35268;42.642;23.308;2023-02-12T05:28:43;94831.31;;;0.13;49.66
49393;BME280;35268;42.642;23.308;2023-02-12T05:31:09;94840.03;;;-0.05;51.09
49393;BME280;35268;42.642;23.308;2023-02-12T05:33:35;94834.38;;;-0.21;50.84
49393;BME280;35268;42.642;23.308;2023-02-12T05:36:10;94841.22;;;-0.19;50.98
49393;BME280;35268;42.642;23.308;2023-02-12T05:38:36;94845.97;;;-0.28;52.24
49393;BME280;35268;42.642;23.308;2023-02-12T05:41:03;94839.63;;;-0.39;52.32
49393;BME280;35268;42.642;23.308;2023-02-12T05:43:29;94846.47;;;-0.38;52.70
49393;BME280;35268;42.642;23.308;2023-02-12T05:45:57;94850.19;;;-0.46;53.56
49393;BME280;35268;42.642;23.308;2023-02-12T05:48:23;94841.53;;;-0.46;53.69
49393;BME280;35268;42.642;23.308;2023-02-12T05:50:48;94856.97;;;-0.56;54.03
49393;BME280;35268;42.642;23.308;2023-02-12T05:53:14;94850.28;;;-0.52;53.61
49393;BME280;35268;42.642;23.308;2023-02-12T05:55:39;94862.63;;;-0.59;54.85
49393;BME280;35268;42.642;23.308;2023-02-12T05:58:04;94862.59;;;-0.53;54.87
49393;BME280;35268;42.642;23.308;2023-02-12T06:00:30;94856.69;;;-0.48;55.52
49393;BME280;35268;42.642;23.308;2023-02-12T06:02:55;94866.38;;;-0.49;56.97
49393;BME280;35268;42.642;23.308;2023-02-12T06:05:21;94855.81;;;-0.61;58.06
49393;BME280;35268;42.642;23.308;2023-02-12T06:07:46;94865.91;;;-0.64;58.69
49393;BME280;35268;42.642;23.308;2023-02-12T06:10:12;94859.50;;;-0.68;59.74
49393;BME280;35268;42.642;23.308;2023-02-12T06:12:37;94862.63;;;-0.78;59.75
49393;BME280;35268;42.642;23.308;2023-02-12T06:15:03;94864.25;;;-0.77;60.19
49393;BME280;35268;42.642;23.308;2023-02-12T06:17:28;94852.81;;;-0.83;60.46
49393;BME280;35268;42.642;23.308;2023-02-12T06:19:53;94859.00;;;-0.77;60.94
49393;BME280;35268;42.642;23.308;2023-02-12T06:22:19;94860.00;;;-0.78;61.04
49393;BME280;35268;42.642;23.308;2023-02-12T06:24:44;94863.59;;;-0.72;61.25
49393;BME280;35268;42.642;23.308;2023-02-12T06:27:10;94861.94;;;-0.67;61.34
49393;BME280;35268;42.642;23.308;2023-02-12T06:29:35;94866.22;;;-0.72;61.90
49393;BME280;35268;42.642;23.308;2023-02-12T06:32:01;94873.47;;;-0.74;63.29
49393;BME280;35268;42.642;23.308;2023-02-12T06:34:29;94862.63;;;-0.78;64.08
49393;BME280;35268;42.642;23.308;2023-02-12T06:36:55;94868.94;;;-0.86;65.22
49393;BME280;35268;42.642;23.308;2023-02-12T06:39:20;94870.06;;;-0.93;65.67
49393;BME280;35268;42.642;23.308;2023-02-12T06:41:45;94886.09;;;-0.90;65.54
49393;BME280;35268;42.642;23.308;2023-02-12T06:44:11;94884.88;;;-0.87;65.42
49393;BME280;35268;42.642;23.308;2023-02-12T06:46:37;94883.84;;;-0.86;65.06
49393;BME280;35268;42.642;23.308;2023-02-12T06:49:03;94879.22;;;-0.84;65.15
49393;BME280;35268;42.642;23.308;2023-02-12T06:51:28;94868.31;;;-0.81;64.92
49393;BME280;35268;42.642;23.308;2023-02-12T06:53:55;94872.91;;;-0.76;64.38
49393;BME280;35268;42.642;23.308;2023-02-12T06:56:23;94870.47;;;-0.78;64.27
49393;BME280;35268;42.642;23.308;2023-02-12T06:58:54;94878.72;;;-0.74;64.69
49393;BME280;35268;42.642;23.308;2023-02-12T07:01:22;94857.84;;;-0.81;64.04
49393;BME280;35268;42.642;23.308;2023-02-12T07:03:50;94861.03;;;-0.79;64.73
49393;BME280;35268;42.642;23.308;2023-02-12T07:06:16;94876.03;;;-0.68;64.67
49393;BME280;35268;42.642;23.308;2023-02-12T07:08:42;94875.81;;;-0.66;64.10
49393;BME280;35268;42.642;23.308;2023-02-12T07:11:07;94874.34;;;-0.62;64.40
49393;BME280;35268;42.642;23.308;2023-02-12T07:13:33;94868.31;;;-0.63;64.10
49393;BME280;35268;42.642;23.308;2023-02-12T07:16:07;94877.34;;;-0.58;64.25
49393;BME280;35268;42.642;23.308;2023-02-12T07:18:34;94880.09;;;-0.53;64.00
49393;BME280;35268;42.642;23.308;2023-02-12T07:20:59;94877.75;;;-0.43;64.03
49393;BME280;35268;42.642;23.308;2023-02-12T07:23:25;94880.97;;;-0.41;63.58
49393;BME280;35268;42.642;23.308;2023-02-12T07:26:01;94877.75;;;-0.43;63.60
49393;BME280;35268;42.642;23.308;2023-02-12T07:28:27;94884.75;;;-0.37;63.88
49393;BME280;35268;42.642;23.308;2023-02-12T07:30:53;94877.56;;;-0.42;64.09
49393;BME280;35268;42.642;23.308;2023-02-12T07:33:18;94882.22;;;-0.44;64.20
49393;BME280;35268;42.642;23.308;2023-02-12T07:35:44;94878.34;;;-0.41;64.62
49393;BME280;35268;42.642;23.308;2023-02-12T07:38:10;94874.72;;;-0.40;64.55
49393;BME280;35268;42.642;23.308;2023-02-12T07:40:35;94878.34;;;-0.41;64.94
49393;BME280;35268;42.642;23.308;2023-02-12T07:43:01;94890.81;;;-0.36;65.06
49393;BME280;35268;42.642;23.308;2023-02-12T07:45:26;94889.56;;;-0.34;65.05
49393;BME280;35268;42.642;23.308;2023-02-12T07:47:51;94896.38;;;-0.33;64.72
49393;BME280;35268;42.642;23.308;2023-02-12T07:50:17;94901.19;;;-0.30;64.86
49393;BME280;35268;42.642;23.308;2023-02-12T07:52:42;94897.22;;;-0.32;65.02
49393;BME280;35268;42.642;23.308;2023-02-12T07:55:08;94894.22;;;-0.36;65.50
49393;BME280;35268;42.642;23.308;2023-02-12T07:57:34;94900.25;;;-0.35;65.50
49393;BME280;35268;42.642;23.308;2023-02-12T08:00:00;94906.06;;;-0.33;65.98
49393;BME280;35268;42.642;23.308;2023-02-12T08:02:25;94899.53;;;-0.43;66.48
49393;BME280;35268;42.642;23.308;2023-02-12T08:04:55;94898.59;;;-0.48;66.93
49393;BME280;35268;42.642;23.308;2023-02-12T08:07:21;94906.06;;;-0.52;67.40
49393;BME280;35268;42.642;23.308;2023-02-12T08:09:47;94911.09;;;-0.50;67.52
49393;BME280;35268;42.642;23.308;2023-02-12T08:12:12;94899.00;;;-0.51;67.45
49393;BME280;35268;42.642;23.308;2023-02-12T08:14:38;94916.34;;;-0.50;67.50
49393;BME280;35268;42.642;23.308;2023-02-12T08:17:03;94902.66;;;-0.52;67.61
49393;BME280;35268;42.642;23.308;2023-02-12T08:19:28;94909.06;;;-0.48;67.73
49393;BME280;35268;42.642;23.308;2023-02-12T08:21:55;94911.75;;;-0.55;68.21
49393;BME280;35268;42.642;23.308;2023-02-12T08:24:21;94905.50;;;-0.54;68.13
49393;BME280;35268;42.642;23.308;2023-02-12T08:26:47;94916.34;;;-0.50;68.35
49393;BME280;35268;42.642;23.308;2023-02-12T08:29:16;94926.81;;;-0.50;68.09
49393;BME280;35268;42.642;23.308;2023-02-12T08:31:44;94915.16;;;-0.54;68.30
49393;BME280;35268;42.642;23.308;2023-02-12T08:34:18;94924.03;;;-0.55;68.71
49393;BME280;35268;42.642;23.308;2023-02-12T08:36:44;94933.00;;;-0.45;68.60
49393;BME280;35268;42.642;23.308;2023-02-12T08:39:11;94932.94;;;-0.38;68.59
49393;BME280;35268;42.642;23.308;2023-02-12T08:41:36;94930.22;;;-0.31;67.88
49393;BME280;35268;42.642;23.308;2023-02-12T08:44:03;94941.16;;;-0.34;67.82
49393;BME280;35268;42.642;23.308;2023-02-12T08:46:31;94936.72;;;-0.34;67.94
49393;BME280;35268;42.642;23.308;2023-02-12T08:49:02;94945.94;;;-0.31;67.88
49393;BME280;35268;42.642;23.308;2023-02-12T08:51:30;94949.66;;;-0.39;68.06
49393;BME280;35268;42.642;23.308;2023-02-12T08:54:00;94955.84;;;-0.33;67.88
49393;BME280;35268;42.642;23.308;2023-02-12T08:56:27;94950.41;;;-0.32;67.76
49393;BME280;35268;42.642;23.308;2023-02-12T08:58:56;94944.94;;;-0.30;68.07
49393;BME280;35268;42.642;23.308;2023-02-12T09:01:23;94954.88;;;-0.39;67.73
49393;BME280;35268;42.642;23.308;2023-02-12T09:03:49;94954.75;;;-0.26;67.31
49393;BME280;35268;42.642;23.308;2023-02-12T09:06:16;94960.44;;;-0.29;67.75
49393;BME280;35268;42.642;23.308;2023-02-12T09:08:43;94957.31;;;-0.37;67.79
49393;BME280;35268;42.642;23.308;2023-02-12T09:11:13;94965.94;;;-0.37;67.90
49393;BME280;35268;42.642;23.308;2023-02-12T09:13:44;94960.50;;;-0.35;68.07
49393;BME280;35268;42.642;23.308;2023-02-12T09:16:10;94967.78;;;-0.37;68.45
49393;BME280;35268;42.642;23.308;2023-02-12T09:18:36;94968.00;;;-0.39;68.19
49393;BME280;35268;42.642;23.308;2023-02-12T09:21:04;94979.91;;;-0.43;68.40
49393;BME280;35268;42.642;23.308;2023-02-12T09:23:30;94978.47;;;-0.39;68.37
49393;BME280;35268;42.642;23.308;2023-02-12T09:25:56;94979.88;;;-0.36;68.55
49393;BME280;35268;42.642;23.308;2023-02-12T09:28:21;94977.84;;;-0.34;68.74
49393;BME280;35268;42.642;23.308;2023-02-12T09:30:47;94983.28;;;-0.36;68.47
49393;BME280;35268;42.642;23.308;2023-02-12T09:33:13;94970.31;;;-0.31;68.65
49393;BME280;35268;42.642;23.308;2023-02-12T09:35:38;94976.97;;;-0.28;68.87
49393;BME280;35268;42.642;23.308;2023-02-12T09:38:05;94981.19;;;-0.27;68.57
49393;BME280;35268;42.642;23.308;2023-02-12T09:40:43;94978.94;;;-0.24;68.27
49393;BME280;35268;42.642;23.308;2023-02-12T09:43:23;94980.50;;;-0.23;68.37
49393;BME280;35268;42.642;23.308;2023-02-12T09:46:01;94975.06;;;-0.21;68.17
49393;BME280;35268;42.642;23.308;2023-02-12T09:51:07;94970.47;;;-0.26;68.52
49393;BME280;35268;42.642;23.308;2023-02-12T09:53:37;94981.84;;;-0.32;68.60
49393;BME280;35268;42.642;23.308;2023-02-12T09:56:14;94985.63;;;-0.28;69.02
49393;BME280;35268;42.642;23.308;2023-02-12T09:58:50;94991.44;;;-0.26;68.72
49393;BME280;35268;42.642;23.308;2023-02-12T10:01:18;94988.53;;;-0.36;69.16
49393;BME280;35268;42.642;23.308;2023-02-12T10:03:48;94981.03;;;-0.32;68.92
49393;BME280;35268;42.642;23.308;2023-02-12T10:06:30;94973.81;;;-0.37;69.42
49393;BME280;35268;42.642;23.308;2023-02-12T10:23:10;94988.16;;;-0.03;69.01
49393;BME280;35268;42.642;23.308;2023-02-12T10:25:47;94983.09;;;0.03;69.22
49393;BME280;35268;42.642;23.308;2023-02-12T10:28:17;94979.66;;;0.02;69.28
49393;BME280;35268;42.642;23.308;2023-02-12T10:33:22;95003.75;;;0.29;68.51
49393;BME280;35268;42.642;23.308;2023-02-12T10:35:54;94995.97;;;0.23;68.46
49393;BME280;35268;42.642;23.308;2023-02-12T10:38:29;95006.16;;;0.31;68.35
49393;BME280;35268;42.642;23.308;2023-02-12T10:40:56;94996.19;;;0.21;68.38
49393;BME280;35268;42.642;23.308;2023-02-12T10:43:26;94998.13;;;0.26;68.42
49393;BME280;35268;42.642;23.308;2023-02-12T10:45:51;94993.78;;;0.19;68.63
49393;BME280;35268;42.642;23.308;2023-02-12T10:48:23;94996.19;;;0.21;68.86
49393;BME280;35268;42.642;23.308;2023-02-12T10:53:23;94987.91;;;0.36;68.74
49393;BME280;35268;42.642;23.308;2023-02-12T10:58:34;94995.28;;;0.76;67.02
49393;BME280;35268;42.642;23.308;2023-02-12T11:01:35;95000.56;;;0.88;66.74
49393;BME280;35268;42.642;23.308;2023-02-12T11:04:19;94995.31;;;0.88;66.53
49393;BME280;35268;42.642;23.308;2023-02-12T11:07:04;95002.75;;;1.03;66.05
49393;BME280;35268;42.642;23.308;2023-02-12T11:09:44;94999.56;;;1.00;66.07
49393;BME280;35268;42.642;23.308;2023-02-12T11:12:30;94999.91;;;1.04;65.97
49393;BME280;35268;42.642;23.308;2023-02-12T11:14:59;94998.44;;;1.08;65.80
49393;BME280;35268;42.642;23.308;2023-02-12T11:17:36;94994.09;;;1.14;65.92
49393;BME280;35268;42.642;23.308;2023-02-12T11:25:20;94985.75;;;1.05;66.19
49393;BME280;35268;42.642;23.308;2023-02-12T11:27:58;94993.50;;;1.00;66.50
49393;BME280;35268;42.642;23.308;2023-02-12T11:30:25;94989.41;;;1.04;66.70
49393;BME280;35268;42.642;23.308;2023-02-12T11:32:50;94988.97;;;1.19;66.56
49393;BME280;35268;42.642;23.308;2023-02-12T11:35:21;94991.13;;;1.22;65.58
49393;BME280;35268;42.642;23.308;2023-02-12T11:37:57;94986.16;;;1.32;65.27
49393;BME280;35268;42.642;23.308;2023-02-12T11:40:28;94981.91;;;1.43;64.88
49393;BME280;35268;42.642;23.308;2023-02-12T11:43:00;94985.13;;;1.45;65.35
49393;BME280;35268;42.642;23.308;2023-02-12T11:45:34;94987.53;;;1.47;65.18
49393;BME280;35268;42.642;23.308;2023-02-12T11:48:01;94981.09;;;1.54;64.93
49393;BME280;35268;42.642;23.308;2023-02-12T11:50:30;94986.63;;;1.53;64.89
49393;BME280;35268;42.642;23.308;2023-02-12T11:52:59;94979.19;;;1.62;64.62
49393;BME280;35268;42.642;23.308;2023-02-12T11:55:31;94982.59;;;1.74;64.90
49393;BME280;35268;42.642;23.308;2023-02-12T12:00:49;94986.34;;;2.02;63.71
49393;BME280;35268;42.642;23.308;2023-02-12T12:06:17;94982.53;;;2.09;62.96
49393;BME280;35268;42.642;23.308;2023-02-12T12:11:40;94981.50;;;2.22;62.52
49393;BME280;35268;42.642;23.308;2023-02-12T12:14:32;94994.28;;;2.30;62.54
49393;BME280;35268;42.642;23.308;2023-02-12T12:17:24;94986.50;;;2.24;61.38
49393;BME280;35268;42.642;23.308;2023-02-12T12:20:15;94996.66;;;2.32;61.82
49393;BME280;35268;42.642;23.308;2023-02-12T12:23:03;94992.69;;;2.29;61.73
49393;BME280;35268;42.642;23.308;2023-02-12T12:28:41;94996.94;;;2.18;61.62
49393;BME280;35268;42.642;23.308;2023-02-12T12:31:34;94995.44;;;2.23;61.89
49393;BME280;35268;42.642;23.308;2023-02-12T12:34:19;95003.19;;;2.29;61.00
49393;BME280;35268;42.642;23.308;2023-02-12T12:45:01;95004.03;;;2.18;61.59
49393;BME280;35268;42.642;23.308;2023-02-12T12:47:46;95011.22;;;2.23;61.92
49393;BME280;35268;42.642;23.308;2023-02-12T12:53:06;95012.56;;;2.37;60.99
49393;BME280;35268;42.642;23.308;2023-02-12T12:58:33;95021.22;;;2.49;60.74
49393;BME280;35268;42.642;23.308;2023-02-12T13:14:43;95033.38;;;2.38;60.28
49393;BME280;35268;42.642;23.308;2023-02-12T13:23:23;95041.66;;;2.18;61.96
49393;BME280;35268;42.642;23.308;2023-02-12T13:28:51;95034.13;;;1.98;62.46
49393;BME280;35268;42.642;23.308;2023-02-12T13:31:21;95044.19;;;2.02;62.48
49393;BME280;35268;42.642;23.308;2023-02-12T13:33:51;95046.72;;;1.96;62.17
49393;BME280;35268;42.642;23.308;2023-02-12T13:36:19;95034.69;;;2.00;62.57
49393;BME280;35268;42.642;23.308;2023-02-12T13:38:50;95034.91;;;1.99;62.56
49393;BME280;35268;42.642;23.308;2023-02-12T13:41:18;95033.22;;;1.93;62.99
49393;BME280;35268;42.642;23.308;2023-02-12T13:52:46;95056.88;;;1.93;63.62
49393;BME280;35268;42.642;23.308;2023-02-12T13:55:34;95058.13;;;1.90;63.76
49393;BME280;35268;42.642;23.308;2023-02-12T13:58:37;95056.44;;;1.84;64.15
49393;BME280;35268;42.642;23.308;2023-02-12T14:01:39;95058.59;;;1.75;63.73
49393;BME280;35268;42.642;23.308;2023-02-12T14:07:09;95062.03;;;1.76;63.71
49393;BME280;35268;42.642;23.308;2023-02-12T14:10:00;95064.19;;;1.79;64.05
49393;BME280;35268;42.642;23.308;2023-02-12T14:12:35;95065.44;;;1.76;63.92
49393;BME280;35268;42.642;23.308;2023-02-12T14:25:01;95078.03;;;1.86;63.78
49393;BME280;35268;42.642;23.308;2023-02-12T14:37:58;95104.44;;;1.91;63.84
49393;BME280;35268;42.642;23.308;2023-02-12T14:43:00;95108.31;;;1.89;63.87
49393;BME280;35268;42.642;23.308;2023-02-12T14:45:32;95117.81;;;1.90;63.76
49393;BME280;35268;42.642;23.308;2023-02-12T14:47:58;95120.44;;;1.90;63.99
49393;BME280;35268;42.642;23.308;2023-02-12T14:50:28;95122.38;;;1.83;63.87
49393;BME280;35268;42.642;23.308;2023-02-12T14:53:06;95122.72;;;1.86;64.09
49393;BME280;35268;42.642;23.308;2023-02-12T14:55:39;95117.47;;;1.86;63.98
49393;BME280;35268;42.642;23.308;2023-02-12T14:58:17;95117.13;;;1.83;63.80
49393;BME280;35268;42.642;23.308;2023-02-12T15:00:46;95127.19;;;1.86;64.02
49393;BME280;35268;42.642;23.308;2023-02-12T15:05:54;95144.34;;;2.00;63.82
49393;BME280;35268;42.642;23.308;2023-02-12T15:11:23;95151.19;;;2.01;63.16
49393;BME280;35268;42.642;23.308;2023-02-12T15:21:36;95169.41;;;2.14;62.84
49393;BME280;35268;42.642;23.308;2023-02-12T15:24:13;95179.34;;;2.12;62.92
49393;BME280;35268;42.642;23.308;2023-02-12T15:26:50;95178.22;;;2.08;62.90
49393;BME280;35268;42.642;23.308;2023-02-12T15:29:41;95194.00;;;2.08;62.71
49393;BME280;35268;42.642;23.308;2023-02-12T15:32:17;95200.41;;;2.12;62.86
49393;BME280;35268;42.642;23.308;2023-02-12T15:34:47;95205.19;;;2.15;62.86
49393;BME280;35268;42.642;23.308;2023-02-12T15:37:21;95217.78;;;2.13;62.84
49393;BME280;35268;42.642;23.308;2023-02-12T15:39:48;95201.88;;;2.08;62.84
49393;BME280;35268;42.642;23.308;2023-02-12T15:42:24;95209.78;;;2.08;62.94
49393;BME280;35268;42.642;23.308;2023-02-12T15:44:50;95215.72;;;2.04;63.17
49393;BME280;35268;42.642;23.308;2023-02-12T15:47:30;95205.06;;;1.98;63.21
49393;BME280;35268;42.642;23.308;2023-02-12T15:49:59;95210.09;;;2.00;63.56
49393;BME280;35268;42.642;23.308;2023-02-12T15:55:56;95217.50;;;1.91;63.88
49393;BME280;35268;42.642;23.308;2023-02-12T15:58:47;95215.91;;;1.90;64.26
49393;BME280;35268;42.642;23.308;2023-02-12T16:01:26;95220.59;;;1.88;64.18